sensor_id;sensor_type;location;lat;lon;timestamp;pressure;altitude;pressure_sealevel;temperature;humidity
62510;BME280;48558;48.242;11.654;2023-07-08T00:01:10;96446.91;;;14.28;85.74
62510;BME280;48558;48.242;11.654;2023-07-08T00:05:25;96430.09;;;14.17;86.28
62510;BME280;48558;48.242;11.654;2023-07-08T00:09:37;96419.53;;;14.21;85.89
62510;BME280;48558;48.242;11.654;2023-07-08T00:13:50;96416.25;;;14.38;84.64
62510;BME280;48558;48.242;11.654;2023-07-08T00:18:11;96413.88;;;14.30;85.69
62510;BME280;48558;48.242;11.654;2023-07-08T00:22:24;96419.59;;;14.27;86.25
62510;BME280;48558;48.242;11.654;2023-07-08T00:26:37;96415.78;;;14.24;86.76
62510;BME280;48558;48.242;11.654;2023-07-08T00:30:50;96421.38;;;14.10;87.05
62510;BME280;48558;48.242;11.654;2023-07-08T00:35:03;96417.53;;;14.07;86.85
62510;BME280;48558;48.242;11.654;2023-07-08T00:39:15;96415.03;;;14.09;86.99
62510;BME280;48558;48.242;11.654;2023-07-08T00:48:22;96417.44;;;14.16;87.66
62510;BME280;48558;48.242;11.654;2023-07-08T00:52:37;96417.25;;;14.05;88.56
62510;BME280;48558;48.242;11.654;2023-07-08T00:56:54;96403.22;;;13.94;88.28
62510;BME280;48558;48.242;11.654;2023-07-08T01:01:09;96420.97;;;14.17;86.86
62510;BME280;48558;48.242;11.654;2023-07-08T01:05:25;96398.47;;;14.15;86.59
62510;BME280;48558;48.242;11.654;2023-07-08T01:09:43;96425.69;;;14.11;86.64
62510;BME280;48558;48.242;11.654;2023-07-08T01:14:00;96395.16;;;13.96;85.29
62510;BME280;48558;48.242;11.654;2023-07-08T01:18:17;96406.72;;;14.09;85.37
62510;BME280;48558;48.242;11.654;2023-07-08T01:22:36;96411.34;;;13.98;86.29
62510;BME280;48558;48.242;11.654;2023-07-08T01:26:49;96413.75;;;13.90;86.91
62510;BME280;48558;48.242;11.654;2023-07-08T01:31:02;96421.03;;;13.88;87.41
62510;BME280;48558;48.242;11.654;2023-07-08T01:35:26;96424.78;;;13.85;87.65
62510;BME280;48558;48.242;11.654;2023-07-08T01:39:39;96428.31;;;13.85;87.91
62510;BME280;48558;48.242;11.654;2023-07-08T01:44:01;96435.13;;;13.84;88.07
62510;BME280;48558;48.242;11.654;2023-07-08T01:48:16;96434.09;;;13.82;88.71
62510;BME280;48558;48.242;11.654;2023-07-08T01:52:30;96438.66;;;13.85;89.12
62510;BME280;48558;48.242;11.654;2023-07-08T01:56:43;96412.44;;;13.71;89.36
62510;BME280;48558;48.242;11.654;2023-07-08T02:00:55;96429.75;;;13.81;89.88
62510;BME280;48558;48.242;11.654;2023-07-08T02:05:09;96420.38;;;13.78;90.22
62510;BME280;48558;48.242;11.654;2023-07-08T02:09:21;96405.31;;;13.85;88.79
62510;BME280;48558;48.242;11.654;2023-07-08T02:13:34;96419.78;;;13.89;87.23
62510;BME280;48558;48.242;11.654;2023-07-08T02:17:56;96396.81;;;13.74;87.87
62510;BME280;48558;48.242;11.654;2023-07-08T02:22:12;96405.88;;;13.89;87.55
62510;BME280;48558;48.242;11.654;2023-07-08T02:26:25;96404.28;;;13.82;88.09
62510;BME280;48558;48.242;11.654;2023-07-08T02:30:40;96407.16;;;13.88;88.71
62510;BME280;48558;48.242;11.654;2023-07-08T02:34:53;96407.72;;;13.92;88.69
62510;BME280;48558;48.242;11.654;2023-07-08T02:39:15;96414.31;;;13.94;88.43
62510;BME280;48558;48.242;11.654;2023-07-08T02:43:28;96403.31;;;13.85;90.06
62510;BME280;48558;48.242;11.654;2023-07-08T02:47:48;96408.22;;;13.76;90.36
62510;BME280;48558;48.242;11.654;2023-07-08T02:52:01;96411.97;;;13.73;91.27
62510;BME280;48558;48.242;11.654;2023-07-08T02:56:13;96412.25;;;13.75;91.33
62510;BME280;48558;48.242;11.654;2023-07-08T03:00:26;96398.66;;;13.62;92.00
62510;BME280;48558;48.242;11.654;2023-07-08T03:04:38;96404.22;;;13.62;92.09
62510;BME280;48558;48.242;11.654;2023-07-08T03:08:51;96414.38;;;13.65;91.71
62510;BME280;48558;48.242;11.654;2023-07-08T03:13:13;96402.97;;;13.63;91.53
62510;BME280;48558;48.242;11.654;2023-07-08T03:17:26;96408.81;;;13.65;92.21
62510;BME280;48558;48.242;11.654;2023-07-08T03:21:38;96402.38;;;13.74;92.18
62510;BME280;48558;48.242;11.654;2023-07-08T03:25:52;96372.16;;;13.61;92.15
62510;BME280;48558;48.242;11.654;2023-07-08T03:30:05;96421.03;;;13.88;90.72
62510;BME280;48558;48.242;11.654;2023-07-08T03:34:18;96413.56;;;13.94;89.92
62510;BME280;48558;48.242;11.654;2023-07-08T03:38:31;96400.19;;;14.12;88.70
62510;BME280;48558;48.242;11.654;2023-07-08T03:42:43;96396.50;;;14.01;89.35
62510;BME280;48558;48.242;11.654;2023-07-08T03:46:56;96391.16;;;13.97;89.43
62510;BME280;48558;48.242;11.654;2023-07-08T03:51:24;96394.84;;;14.09;88.65
62510;BME280;48558;48.242;11.654;2023-07-08T03:55:39;96401.22;;;14.29;88.43
62510;BME280;48558;48.242;11.654;2023-07-08T03:59:54;96409.91;;;14.37;87.76
62510;BME280;48558;48.242;11.654;2023-07-08T04:04:08;96395.19;;;14.31;87.47
62510;BME280;48558;48.242;11.654;2023-07-08T04:08:24;96400.00;;;14.51;88.03
62510;BME280;48558;48.242;11.654;2023-07-08T04:12:37;96413.75;;;14.60;88.34
62510;BME280;48558;48.242;11.654;2023-07-08T04:17:00;96410.78;;;14.83;86.98
62510;BME280;48558;48.242;11.654;2023-07-08T04:21:13;96408.44;;;15.02;86.38
62510;BME280;48558;48.242;11.654;2023-07-08T04:25:28;96411.91;;;15.17;86.07
62510;BME280;48558;48.242;11.654;2023-07-08T04:29:42;96428.72;;;15.28;86.16
62510;BME280;48558;48.242;11.654;2023-07-08T04:33:57;96424.38;;;15.47;85.29
62510;BME280;48558;48.242;11.654;2023-07-08T04:38:20;96428.34;;;15.66;85.75
62510;BME280;48558;48.242;11.654;2023-07-08T04:42:34;96424.44;;;15.84;85.41
62510;BME280;48558;48.242;11.654;2023-07-08T04:51:04;96440.75;;;16.28;79.12
62510;BME280;48558;48.242;11.654;2023-07-08T04:55:18;96445.38;;;16.42;72.52
62510;BME280;48558;48.242;11.654;2023-07-08T04:59:31;96458.22;;;16.60;72.39
62510;BME280;48558;48.242;11.654;2023-07-08T05:03:46;96465.44;;;16.88;73.33
62510;BME280;48558;48.242;11.654;2023-07-08T05:08:00;96473.41;;;17.06;75.31
62510;BME280;48558;48.242;11.654;2023-07-08T05:12:14;96476.00;;;17.27;77.73
62510;BME280;48558;48.242;11.654;2023-07-08T05:16:26;96487.53;;;17.51;77.69
62510;BME280;48558;48.242;11.654;2023-07-08T05:20:39;96482.72;;;17.62;74.93
62510;BME280;48558;48.242;11.654;2023-07-08T05:24:52;96476.19;;;18.15;73.83
62510;BME280;48558;48.242;11.654;2023-07-08T05:29:07;96483.81;;;18.26;71.44
62510;BME280;48558;48.242;11.654;2023-07-08T05:33:20;96479.72;;;18.54;69.63
62510;BME280;48558;48.242;11.654;2023-07-08T05:37:33;96467.97;;;18.78;70.21
62510;BME280;48558;48.242;11.654;2023-07-08T05:41:45;96500.78;;;18.89;67.94
62510;BME280;48558;48.242;11.654;2023-07-08T05:45:59;96493.91;;;18.84;68.96
62510;BME280;48558;48.242;11.654;2023-07-08T05:50:23;96486.03;;;18.88;71.55
62510;BME280;48558;48.242;11.654;2023-07-08T05:54:39;96486.75;;;19.00;70.03
62510;BME280;48558;48.242;11.654;2023-07-08T05:58:53;96474.41;;;19.36;68.74
62510;BME280;48558;48.242;11.654;2023-07-08T06:03:06;96478.63;;;19.59;67.10
62510;BME280;48558;48.242;11.654;2023-07-08T06:07:28;96457.22;;;19.56;65.15
62510;BME280;48558;48.242;11.654;2023-07-08T06:11:41;96447.00;;;19.64;64.65
62510;BME280;48558;48.242;11.654;2023-07-08T06:15:53;96448.47;;;19.19;65.17
62510;BME280;48558;48.242;11.654;2023-07-08T06:20:07;96457.84;;;19.27;64.89
62510;BME280;48558;48.242;11.654;2023-07-08T06:24:19;96467.06;;;19.22;64.97
62510;BME280;48558;48.242;11.654;2023-07-08T06:28:33;96467.50;;;19.83;62.35
62510;BME280;48558;48.242;11.654;2023-07-08T06:32:45;96469.31;;;20.22;62.81
62510;BME280;48558;48.242;11.654;2023-07-08T06:36:58;96463.06;;;20.34;59.48
62510;BME280;48558;48.242;11.654;2023-07-08T06:41:10;96458.28;;;20.53;59.64
62510;BME280;48558;48.242;11.654;2023-07-08T06:45:33;96472.59;;;20.74;59.00
62510;BME280;48558;48.242;11.654;2023-07-08T06:49:48;96472.03;;;21.48;58.20
62510;BME280;48558;48.242;11.654;2023-07-08T06:54:11;96450.88;;;21.79;56.52
62510;BME280;48558;48.242;11.654;2023-07-08T06:58:24;96469.09;;;22.09;57.02
62510;BME280;48558;48.242;11.654;2023-07-08T07:02:37;96475.47;;;22.29;57.68
62510;BME280;48558;48.242;11.654;2023-07-08T07:06:50;96480.09;;;22.26;56.51
62510;BME280;48558;48.242;11.654;2023-07-08T07:11:04;96479.00;;;22.16;54.77
62510;BME280;48558;48.242;11.654;2023-07-08T07:15:17;96481.91;;;22.55;54.02
62510;BME280;48558;48.242;11.654;2023-07-08T07:19:29;96496.97;;;23.29;53.14
62510;BME280;48558;48.242;11.654;2023-07-08T07:23:42;96496.84;;;23.21;53.59
62510;BME280;48558;48.242;11.654;2023-07-08T07:28:04;96505.31;;;23.47;52.49
62510;BME280;48558;48.242;11.654;2023-07-08T07:32:19;96497.63;;;24.08;51.39
62510;BME280;48558;48.242;11.654;2023-07-08T07:36:35;96495.41;;;24.14;51.41
62510;BME280;48558;48.242;11.654;2023-07-08T07:40:47;96493.78;;;24.60;50.00
62510;BME280;48558;48.242;11.654;2023-07-08T07:45:00;96503.31;;;23.82;49.10
62510;BME280;48558;48.242;11.654;2023-07-08T07:49:13;96504.22;;;23.77;49.08
62510;BME280;48558;48.242;11.654;2023-07-08T07:53:25;96512.88;;;24.67;47.86
62510;BME280;48558;48.242;11.654;2023-07-08T07:57:38;96508.94;;;24.90;49.15
62510;BME280;48558;48.242;11.654;2023-07-08T08:01:50;96514.50;;;25.04;47.46
62510;BME280;48558;48.242;11.654;2023-07-08T08:06:03;96530.19;;;26.04;46.88
62510;BME280;48558;48.242;11.654;2023-07-08T08:10:15;96536.94;;;26.52;43.72
62510;BME280;48558;48.242;11.654;2023-07-08T08:14:38;96548.94;;;26.15;44.08
62510;BME280;48558;48.242;11.654;2023-07-08T08:18:51;96560.16;;;25.28;46.75
62510;BME280;48558;48.242;11.654;2023-07-08T08:23:03;96552.09;;;24.70;45.39
62510;BME280;48558;48.242;11.654;2023-07-08T08:27:17;96553.50;;;25.46;45.24
62510;BME280;48558;48.242;11.654;2023-07-08T08:31:29;96558.84;;;25.57;44.19
62510;BME280;48558;48.242;11.654;2023-07-08T08:35:44;96568.09;;;26.01;44.25
62510;BME280;48558;48.242;11.654;2023-07-08T08:39:56;96562.66;;;25.68;43.81
62510;BME280;48558;48.242;11.654;2023-07-08T08:44:17;96559.31;;;25.77;42.98
62510;BME280;48558;48.242;11.654;2023-07-08T08:48:56;96550.66;;;25.82;43.94
62510;BME280;48558;48.242;11.654;2023-07-08T08:53:12;96568.19;;;25.45;45.23
62510;BME280;48558;48.242;11.654;2023-07-08T08:57:59;96547.00;;;25.67;44.34
62510;BME280;48558;48.242;11.654;2023-07-08T09:02:36;96547.38;;;26.72;44.37
62510;BME280;48558;48.242;11.654;2023-07-08T09:07:07;96567.66;;;26.18;42.77
62510;BME280;48558;48.242;11.654;2023-07-08T09:20:48;96568.97;;;24.76;46.59
62510;BME280;48558;48.242;11.654;2023-07-08T09:26:11;67240.25;;;-142.40;100.00
62510;BME280;48558;48.242;11.654;2023-07-08T09:30:37;96619.81;;;26.88;83.29
62510;BME280;48558;48.242;11.654;2023-07-08T09:34:51;96628.91;;;23.75;77.08
62510;BME280;48558;48.242;11.654;2023-07-08T09:39:10;96620.78;;;23.59;100.00
62510;BME280;48558;48.242;11.654;2023-07-08T09:43:34;96619.47;;;24.79;100.00
62510;BME280;48558;48.242;11.654;2023-07-08T09:47:55;96592.06;;;26.36;49.55
62510;BME280;48558;48.242;11.654;2023-07-08T09:52:12;96575.75;;;27.33;48.74
62510;BME280;48558;48.242;11.654;2023-07-08T09:56:27;96573.69;;;27.33;48.78
62510;BME280;48558;48.242;11.654;2023-07-08T10:00:41;96579.47;;;26.67;45.00
62510;BME280;48558;48.242;11.654;2023-07-08T10:05:03;96567.81;;;27.24;43.47
62510;BME280;48558;48.242;11.654;2023-07-08T10:09:25;96571.41;;;26.94;43.91
62510;BME280;48558;48.242;11.654;2023-07-08T10:13:38;96578.59;;;27.48;44.19
62510;BME280;48558;48.242;11.654;2023-07-08T10:17:57;96567.25;;;27.18;45.50
62510;BME280;48558;48.242;11.654;2023-07-08T10:22:29;96585.94;;;27.81;41.98
62510;BME280;48558;48.242;11.654;2023-07-08T10:26:58;96590.13;;;27.73;42.61
62510;BME280;48558;48.242;11.654;2023-07-08T10:31:25;96593.63;;;29.15;39.93
62510;BME280;48558;48.242;11.654;2023-07-08T10:36:18;96596.72;;;29.93;35.44
62510;BME280;48558;48.242;11.654;2023-07-08T10:45:12;96589.03;;;31.73;35.81
62510;BME280;48558;48.242;11.654;2023-07-08T10:58:36;96585.25;;;30.62;34.67
62510;BME280;48558;48.242;11.654;2023-07-08T11:03:20;96588.63;;;31.04;34.39
62510;BME280;48558;48.242;11.654;2023-07-08T11:07:43;96584.84;;;31.93;35.91
62510;BME280;48558;48.242;11.654;2023-07-08T11:17:10;96574.06;;;34.89;29.93
62510;BME280;48558;48.242;11.654;2023-07-08T11:21:47;96557.56;;;34.78;27.20
62510;BME280;48558;48.242;11.654;2023-07-08T11:26:20;96558.63;;;33.44;32.21
62510;BME280;48558;48.242;11.654;2023-07-08T11:30:47;96548.28;;;32.20;32.96
62510;BME280;48558;48.242;11.654;2023-07-08T11:35:05;96554.88;;;32.42;31.83
62510;BME280;48558;48.242;11.654;2023-07-08T11:39:41;96562.56;;;31.82;32.20
62510;BME280;48558;48.242;11.654;2023-07-08T11:44:03;96561.81;;;33.08;30.67
62510;BME280;48558;48.242;11.654;2023-07-08T11:48:22;96557.75;;;33.11;34.07
62510;BME280;48558;48.242;11.654;2023-07-08T11:52:50;96566.13;;;33.18;29.62
62510;BME280;48558;48.242;11.654;2023-07-08T11:57:06;96539.78;;;32.70;33.89
62510;BME280;48558;48.242;11.654;2023-07-08T12:10:49;96538.47;;;34.83;28.91
62510;BME280;48558;48.242;11.654;2023-07-08T12:19:32;96534.66;;;34.57;25.73
62510;BME280;48558;48.242;11.654;2023-07-08T12:23:53;96539.94;;;34.84;27.81
62510;BME280;48558;48.242;11.654;2023-07-08T12:28:10;96529.28;;;35.90;26.32
62510;BME280;48558;48.242;11.654;2023-07-08T12:32:27;96528.09;;;35.70;25.51
62510;BME280;48558;48.242;11.654;2023-07-08T12:36:42;96512.50;;;35.98;24.44
62510;BME280;48558;48.242;11.654;2023-07-08T12:41:11;96530.28;;;35.95;22.79
62510;BME280;48558;48.242;11.654;2023-07-08T12:45:30;96520.88;;;35.35;22.04
62510;BME280;48558;48.242;11.654;2023-07-08T12:49:46;96519.22;;;34.74;24.18
62510;BME280;48558;48.242;11.654;2023-07-08T12:53:59;96521.22;;;34.38;25.92
62510;BME280;48558;48.242;11.654;2023-07-08T12:58:19;96511.09;;;33.72;26.04
62510;BME280;48558;48.242;11.654;2023-07-08T13:02:39;96515.81;;;34.00;25.28
62510;BME280;48558;48.242;11.654;2023-07-08T13:06:55;96520.13;;;35.34;26.52
62510;BME280;48558;48.242;11.654;2023-07-08T13:11:13;96520.25;;;36.33;27.04
62510;BME280;48558;48.242;11.654;2023-07-08T13:15:39;96519.38;;;36.30;23.99
62510;BME280;48558;48.242;11.654;2023-07-08T13:20:05;96517.34;;;36.83;25.27
62510;BME280;48558;48.242;11.654;2023-07-08T13:24:21;96515.59;;;37.71;26.05
62510;BME280;48558;48.242;11.654;2023-07-08T13:28:38;96517.84;;;37.32;25.93
62510;BME280;48558;48.242;11.654;2023-07-08T13:32:56;96517.97;;;37.20;23.81
62510;BME280;48558;48.242;11.654;2023-07-08T13:37:14;96513.50;;;36.79;25.83
62510;BME280;48558;48.242;11.654;2023-07-08T13:41:43;96512.31;;;37.09;24.48
62510;BME280;48558;48.242;11.654;2023-07-08T13:45:58;96511.59;;;36.33;25.56
62510;BME280;48558;48.242;11.654;2023-07-08T13:50:22;96509.47;;;36.08;24.32
62510;BME280;48558;48.242;11.654;2023-07-08T13:54:47;96509.06;;;37.98;22.96
62510;BME280;48558;48.242;11.654;2023-07-08T13:59:18;96497.47;;;37.55;24.91
62510;BME280;48558;48.242;11.654;2023-07-08T14:03:35;96488.78;;;37.01;22.73
62510;BME280;48558;48.242;11.654;2023-07-08T14:07:49;96491.56;;;36.99;23.91
62510;BME280;48558;48.242;11.654;2023-07-08T14:12:12;96495.44;;;37.44;22.14
62510;BME280;48558;48.242;11.654;2023-07-08T14:16:27;96498.31;;;37.17;23.92
62510;BME280;48558;48.242;11.654;2023-07-08T14:20:43;96488.53;;;35.11;23.01
62510;BME280;48558;48.242;11.654;2023-07-08T14:25:00;96481.88;;;35.31;25.18
62510;BME280;48558;48.242;11.654;2023-07-08T14:29:27;96495.84;;;33.48;28.12
62510;BME280;48558;48.242;11.654;2023-07-08T14:33:41;96491.63;;;34.80;25.43
62510;BME280;48558;48.242;11.654;2023-07-08T14:37:54;96483.13;;;35.40;25.39
62510;BME280;48558;48.242;11.654;2023-07-08T14:42:10;96481.34;;;36.07;24.86
62510;BME280;48558;48.242;11.654;2023-07-08T14:46:24;96478.97;;;36.28;25.00
62510;BME280;48558;48.242;11.654;2023-07-08T14:50:38;96484.56;;;34.37;27.73
62510;BME280;48558;48.242;11.654;2023-07-08T14:54:52;96480.34;;;32.40;28.38
62510;BME280;48558;48.242;11.654;2023-07-08T14:59:05;96486.53;;;32.36;29.18
62510;BME280;48558;48.242;11.654;2023-07-08T15:03:19;96462.81;;;31.86;28.56
62510;BME280;48558;48.242;11.654;2023-07-08T15:07:32;96480.63;;;32.53;30.90
62510;BME280;48558;48.242;11.654;2023-07-08T15:11:55;96490.97;;;35.63;26.79
62510;BME280;48558;48.242;11.654;2023-07-08T15:16:12;96485.50;;;36.54;22.92
62510;BME280;48558;48.242;11.654;2023-07-08T15:20:27;96477.06;;;36.97;24.89
62510;BME280;48558;48.242;11.654;2023-07-08T15:24:40;96471.03;;;36.40;22.97
62510;BME280;48558;48.242;11.654;2023-07-08T15:29:05;96463.25;;;36.43;23.17
62510;BME280;48558;48.242;11.654;2023-07-08T15:33:27;96464.25;;;37.54;22.53
62510;BME280;48558;48.242;11.654;2023-07-08T15:37:41;96462.66;;;36.58;25.17
62510;BME280;48558;48.242;11.654;2023-07-08T15:41:55;96458.72;;;36.26;24.16
62510;BME280;48558;48.242;11.654;2023-07-08T15:46:09;96468.94;;;35.19;25.09
62510;BME280;48558;48.242;11.654;2023-07-08T15:50:24;96457.16;;;33.80;25.77
62510;BME280;48558;48.242;11.654;2023-07-08T15:54:38;96453.81;;;33.41;27.92
62510;BME280;48558;48.242;11.654;2023-07-08T15:58:52;96462.94;;;34.36;28.13
62510;BME280;48558;48.242;11.654;2023-07-08T16:03:25;96471.63;;;36.64;25.15
62510;BME280;48558;48.242;11.654;2023-07-08T16:07:39;96470.19;;;38.28;24.35
62510;BME280;48558;48.242;11.654;2023-07-08T16:11:52;96470.88;;;37.43;23.87
62510;BME280;48558;48.242;11.654;2023-07-08T16:16:10;96464.47;;;36.26;26.96
62510;BME280;48558;48.242;11.654;2023-07-08T16:20:26;96469.22;;;36.86;25.70
62510;BME280;48558;48.242;11.654;2023-07-08T16:24:40;96483.78;;;35.87;26.01
62510;BME280;48558;48.242;11.654;2023-07-08T16:28:54;96472.34;;;36.26;25.71
62510;BME280;48558;48.242;11.654;2023-07-08T16:33:08;96470.09;;;35.99;26.97
62510;BME280;48558;48.242;11.654;2023-07-08T16:37:21;96458.38;;;37.52;25.15
62510;BME280;48558;48.242;11.654;2023-07-08T16:41:36;96459.81;;;37.94;24.39
62510;BME280;48558;48.242;11.654;2023-07-08T16:45:49;96457.09;;;37.55;24.70
62510;BME280;48558;48.242;11.654;2023-07-08T16:50:03;96441.97;;;38.42;24.54
62510;BME280;48558;48.242;11.654;2023-07-08T16:54:17;96461.38;;;37.27;23.99
62510;BME280;48558;48.242;11.654;2023-07-08T16:58:31;96452.56;;;39.14;22.84
62510;BME280;48558;48.242;11.654;2023-07-08T17:02:46;96449.47;;;38.94;21.53
62510;BME280;48558;48.242;11.654;2023-07-08T17:07:00;96453.94;;;37.92;23.02
62510;BME280;48558;48.242;11.654;2023-07-08T17:11:14;96458.41;;;37.25;23.97
62510;BME280;48558;48.242;11.654;2023-07-08T17:15:38;96454.13;;;37.12;25.02
62510;BME280;48558;48.242;11.654;2023-07-08T17:19:52;96449.84;;;37.54;24.12
62510;BME280;48558;48.242;11.654;2023-07-08T17:24:08;96447.19;;;37.45;26.02
62510;BME280;48558;48.242;11.654;2023-07-08T17:28:23;96452.50;;;37.09;26.49
62510;BME280;48558;48.242;11.654;2023-07-08T17:32:37;96440.09;;;36.80;25.88
62510;BME280;48558;48.242;11.654;2023-07-08T17:37:00;96445.84;;;36.27;25.12
62510;BME280;48558;48.242;11.654;2023-07-08T17:41:16;96453.75;;;36.40;25.04
62510;BME280;48558;48.242;11.654;2023-07-08T17:45:43;96451.13;;;37.24;27.00
62510;BME280;48558;48.242;11.654;2023-07-08T17:49:59;96454.28;;;36.76;27.08
62510;BME280;48558;48.242;11.654;2023-07-08T17:54:13;96450.44;;;35.70;26.42
62510;BME280;48558;48.242;11.654;2023-07-08T17:58:37;96439.53;;;34.51;30.55
62510;BME280;48558;48.242;11.654;2023-07-08T18:02:50;96439.38;;;33.60;31.05
62510;BME280;48558;48.242;11.654;2023-07-08T18:07:04;96438.56;;;32.16;31.63
62510;BME280;48558;48.242;11.654;2023-07-08T18:11:27;96448.97;;;30.79;33.13
62510;BME280;48558;48.242;11.654;2023-07-08T18:15:40;96444.66;;;29.98;38.14
62510;BME280;48558;48.242;11.654;2023-07-08T18:19:56;96448.59;;;29.00;42.67
62510;BME280;48558;48.242;11.654;2023-07-08T18:24:11;96452.84;;;28.17;45.65
62510;BME280;48558;48.242;11.654;2023-07-08T18:28:24;96458.22;;;27.58;47.08
62510;BME280;48558;48.242;11.654;2023-07-08T18:32:37;96454.19;;;26.76;48.20
62510;BME280;48558;48.242;11.654;2023-07-08T18:36:58;96456.41;;;26.25;50.66
62510;BME280;48558;48.242;11.654;2023-07-08T18:41:16;96453.50;;;25.95;51.27
62510;BME280;48558;48.242;11.654;2023-07-08T18:45:40;96466.94;;;25.58;53.46
62510;BME280;48558;48.242;11.654;2023-07-08T18:50:03;96451.56;;;25.03;56.54
62510;BME280;48558;48.242;11.654;2023-07-08T18:54:18;96459.72;;;24.65;58.25
62510;BME280;48558;48.242;11.654;2023-07-08T18:58:31;96475.75;;;24.42;60.82
62510;BME280;48558;48.242;11.654;2023-07-08T19:02:56;96478.41;;;23.93;60.98
62510;BME280;48558;48.242;11.654;2023-07-08T19:07:12;96478.91;;;23.71;63.48
62510;BME280;48558;48.242;11.654;2023-07-08T19:11:37;96482.25;;;23.36;62.64
62510;BME280;48558;48.242;11.654;2023-07-08T19:15:50;96487.53;;;23.13;64.06
62510;BME280;48558;48.242;11.654;2023-07-08T19:20:05;96492.63;;;22.89;64.25
62510;BME280;48558;48.242;11.654;2023-07-08T19:24:18;96496.19;;;22.89;63.70
62510;BME280;48558;48.242;11.654;2023-07-08T19:28:49;96501.03;;;22.62;63.14
62510;BME280;48558;48.242;11.654;2023-07-08T19:33:03;96517.47;;;22.27;64.44
62510;BME280;48558;48.242;11.654;2023-07-08T19:37:18;96515.50;;;22.03;66.79
62510;BME280;48558;48.242;11.654;2023-07-08T19:41:37;96523.28;;;21.97;68.96
62510;BME280;48558;48.242;11.654;2023-07-08T19:45:51;96517.94;;;21.75;71.79
62510;BME280;48558;48.242;11.654;2023-07-08T19:50:08;96525.47;;;21.48;73.96
62510;BME280;48558;48.242;11.654;2023-07-08T19:54:21;96524.47;;;21.46;69.82
62510;BME280;48558;48.242;11.654;2023-07-08T19:58:35;96522.72;;;21.42;68.37
62510;BME280;48558;48.242;11.654;2023-07-08T20:02:51;96519.16;;;21.18;70.97
62510;BME280;48558;48.242;11.654;2023-07-08T20:07:15;96524.25;;;21.19;71.37
62510;BME280;48558;48.242;11.654;2023-07-08T20:11:29;96522.13;;;20.77;74.15
62510;BME280;48558;48.242;11.654;2023-07-08T20:15:42;96535.56;;;20.60;76.81
62510;BME280;48558;48.242;11.654;2023-07-08T20:20:20;96528.94;;;20.57;76.32
62510;BME280;48558;48.242;11.654;2023-07-08T20:24:34;96531.34;;;20.42;77.91
62510;BME280;48558;48.242;11.654;2023-07-08T20:28:47;96539.69;;;20.24;79.63
62510;BME280;48558;48.242;11.654;2023-07-08T20:33:13;96544.13;;;20.02;82.00
62510;BME280;48558;48.242;11.654;2023-07-08T20:37:26;96547.50;;;19.95;81.93
62510;BME280;48558;48.242;11.654;2023-07-08T20:41:38;96555.00;;;19.76;81.95
62510;BME280;48558;48.242;11.654;2023-07-08T20:45:53;96546.06;;;19.78;83.37
62510;BME280;48558;48.242;11.654;2023-07-08T20:50:14;96544.59;;;19.66;83.75
62510;BME280;48558;48.242;11.654;2023-07-08T20:54:38;96542.38;;;19.53;84.18
62510;BME280;48558;48.242;11.654;2023-07-08T20:58:51;96547.75;;;19.46;84.78
62510;BME280;48558;48.242;11.654;2023-07-08T21:03:06;96550.59;;;19.40;85.08
62510;BME280;48558;48.242;11.654;2023-07-08T21:07:20;96549.31;;;19.30;86.86
62510;BME280;48558;48.242;11.654;2023-07-08T21:11:33;96562.34;;;19.22;87.03
62510;BME280;48558;48.242;11.654;2023-07-08T21:15:46;96565.41;;;19.13;88.08
62510;BME280;48558;48.242;11.654;2023-07-08T21:19:59;96570.28;;;19.01;88.82
62510;BME280;48558;48.242;11.654;2023-07-08T21:24:13;96557.03;;;18.91;88.12
62510;BME280;48558;48.242;11.654;2023-07-08T21:28:30;96558.31;;;18.84;87.95
62510;BME280;48558;48.242;11.654;2023-07-08T21:32:47;96554.03;;;18.72;88.13
62510;BME280;48558;48.242;11.654;2023-07-08T21:37:01;96560.38;;;18.73;87.95
62510;BME280;48558;48.242;11.654;2023-07-08T21:41:13;96550.19;;;18.64;89.84
62510;BME280;48558;48.242;11.654;2023-07-08T21:45:32;96562.69;;;18.63;89.66
62510;BME280;48558;48.242;11.654;2023-07-08T21:49:46;96568.53;;;18.59;88.58
62510;BME280;48558;48.242;11.654;2023-07-08T21:54:01;96559.13;;;18.46;90.10
62510;BME280;48558;48.242;11.654;2023-07-08T21:58:16;96564.44;;;18.38;91.98
62510;BME280;48558;48.242;11.654;2023-07-08T22:02:28;96562.91;;;18.37;91.05
62510;BME280;48558;48.242;11.654;2023-07-08T22:06:42;96552.72;;;18.34;92.41
62510;BME280;48558;48.242;11.654;2023-07-08T22:10:58;96557.06;;;18.24;93.17
62510;BME280;48558;48.242;11.654;2023-07-08T22:15:24;96556.53;;;18.15;93.89
62510;BME280;48558;48.242;11.654;2023-07-08T22:19:37;96567.69;;;18.09;94.15
62510;BME280;48558;48.242;11.654;2023-07-08T22:23:50;96557.03;;;18.08;94.69
62510;BME280;48558;48.242;11.654;2023-07-08T22:28:03;96562.38;;;18.06;96.50
62510;BME280;48558;48.242;11.654;2023-07-08T22:32:16;96576.84;;;17.99;97.12
62510;BME280;48558;48.242;11.654;2023-07-08T22:36:28;96574.31;;;17.95;97.44
62510;BME280;48558;48.242;11.654;2023-07-08T22:40:45;96571.22;;;17.82;98.50
62510;BME280;48558;48.242;11.654;2023-07-08T22:44:59;96590.50;;;17.80;100.00
62510;BME280;48558;48.242;11.654;2023-07-08T22:49:12;96588.22;;;17.73;100.00
62510;BME280;48558;48.242;11.654;2023-07-08T22:53:37;96583.16;;;17.77;100.00
62510;BME280;48558;48.242;11.654;2023-07-08T22:57:50;96586.94;;;17.74;100.00
62510;BME280;48558;48.242;11.654;2023-07-08T23:02:03;96590.47;;;17.63;100.00
62510;BME280;48558;48.242;11.654;2023-07-08T23:06:26;96588.16;;;17.62;100.00
62510;BME280;48558;48.242;11.654;2023-07-08T23:10:49;96604.66;;;17.54;100.00
62510;BME280;48558;48.242;11.654;2023-07-08T23:15:01;96603.34;;;17.50;100.00